Time;durP1;ratioP1;P1;durP2;ratioP2;P2;SDS_P1;SDS_P2;PMS_P1;PMS_P2;Temp;Humidity;BMP_temperature;BMP_pressure;BME280_temperature;BME280_humidity;BME280_pressure;Samples;Min_cycle;Max_cycle;Signal;HPM_P1;HPM_P2
2022/11/29 00:01:45;;;;;;;24.17;21.77;;;7.00;99.90;;;;;;6118976;23;20201;-74
2022/11/29 00:04:12;;;;;;;24.25;21.85;;;7.00;99.90;;;;;;6113473;23;20197;-74
2022/11/29 00:06:39;;;;;;;24.30;21.85;;;7.00;99.90;;;;;;6116027;23;20192;-74
2022/11/29 00:09:11;;;;;;;24.63;22.25;;;7.00;99.90;;;;;;6118858;23;20638;-74
2022/11/29 00:14:26;;;;;;;24.52;21.50;;;6.90;99.90;;;;;;6120070;23;20207;-74
2022/11/29 00:16:55;;;;;;;24.73;22.33;;;6.90;99.90;;;;;;6120602;23;20270;-74
2022/11/29 00:19:22;;;;;;;24.45;21.92;;;6.90;99.90;;;;;;6120735;23;20519;-74
2022/11/29 00:21:50;;;;;;;24.38;21.98;;;7.00;99.90;;;;;;6121936;23;20530;-74
2022/11/29 00:24:17;;;;;;;24.90;22.42;;;6.90;99.90;;;;;;6114940;23;20608;-74
2022/11/29 00:26:46;;;;;;;24.13;21.85;;;6.90;99.90;;;;;;6117707;23;20270;-74
2022/11/29 00:29:13;;;;;;;26.10;23.40;;;6.90;99.90;;;;;;6119125;23;20214;-74
2022/11/29 00:31:42;;;;;;;24.25;21.95;;;6.90;99.90;;;;;;6117404;23;20193;-74
2022/11/29 00:34:11;;;;;;;24.98;22.38;;;6.90;99.90;;;;;;6118958;23;20589;-74
2022/11/29 00:36:39;;;;;;;26.88;24.20;;;6.90;99.90;;;;;;6115822;23;20267;-74
2022/11/29 00:39:06;;;;;;;24.98;22.60;;;7.00;99.90;;;;;;6117075;23;20538;-74
2022/11/29 00:41:33;;;;;;;24.58;22.17;;;7.00;99.90;;;;;;6117803;23;20262;-74
2022/11/29 00:44:02;;;;;;;27.42;24.50;;;7.00;99.90;;;;;;6116103;23;20717;-74
2022/11/29 00:46:30;;;;;;;24.25;21.73;;;7.00;99.90;;;;;;6117093;23;20669;-74
2022/11/29 00:48:57;;;;;;;25.50;22.60;;;7.00;99.90;;;;;;6118562;23;20253;-74
2022/11/29 00:51:24;;;;;;;23.33;21.02;;;7.00;99.90;;;;;;6117102;23;20218;-74
2022/11/29 00:53:51;;;;;;;26.95;24.45;;;7.00;99.90;;;;;;6119278;23;20206;-71
2022/11/29 00:56:18;;;;;;;26.08;23.40;;;7.00;99.90;;;;;;6117398;23;20274;-74
2022/11/29 00:58:47;;;;;;;25.77;23.27;;;7.00;99.90;;;;;;6116665;23;20672;-74
2022/11/29 01:01:17;;;;;;;24.90;22.60;;;7.00;99.90;;;;;;6115199;23;20210;-74
2022/11/29 01:03:45;;;;;;;28.88;26.17;;;7.10;99.90;;;;;;6113118;23;20843;-74
2022/11/29 01:06:15;;;;;;;24.23;21.80;;;7.10;99.90;;;;;;6118202;23;20278;-74
2022/11/29 01:08:44;;;;;;;23.00;20.90;;;7.10;99.90;;;;;;6115890;23;20296;-74
2022/11/29 01:11:14;;;;;;;27.00;24.38;;;7.10;99.90;;;;;;6112408;23;20261;-74
2022/11/29 01:13:42;;;;;;;23.17;21.08;;;7.20;99.90;;;;;;6117518;23;20199;-73
2022/11/29 01:16:10;;;;;;;24.35;22.15;;;7.30;99.90;;;;;;6116443;23;20194;-73
2022/11/29 01:18:39;;;;;;;26.60;23.92;;;7.30;99.90;;;;;;6116936;23;20219;-74
2022/11/29 01:21:08;;;;;;;26.38;23.77;;;7.40;99.90;;;;;;6119827;23;20230;-74
2022/11/29 01:23:37;;;;;;;25.70;23.05;;;7.40;99.90;;;;;;6115792;23;20223;-74
2022/11/29 01:26:06;;;;;;;27.73;24.70;;;7.40;99.90;;;;;;6117276;23;20241;-74
2022/11/29 01:28:34;;;;;;;24.92;22.40;;;7.40;99.90;;;;;;6116917;23;20612;-74
2022/11/29 01:31:06;;;;;;;25.58;23.08;;;7.40;99.90;;;;;;6118814;23;20184;-73
2022/11/29 01:33:33;;;;;;;24.88;22.58;;;7.40;99.90;;;;;;6110247;23;20267;-74
2022/11/29 01:36:02;;;;;;;23.38;21.27;;;7.50;99.90;;;;;;6117940;23;20295;-74
2022/11/29 01:38:30;;;;;;;22.90;20.70;;;7.50;99.90;;;;;;6117060;23;20210;-74
2022/11/29 01:41:01;;;;;;;24.63;22.13;;;7.50;99.90;;;;;;6116847;23;20212;-74
2022/11/29 01:43:30;;;;;;;24.73;22.23;;;7.60;99.90;;;;;;6105873;23;20635;-73
2022/11/29 01:45:58;;;;;;;22.25;19.98;;;7.60;99.90;;;;;;6117594;23;20192;-73
2022/11/29 01:48:28;;;;;;;22.67;20.23;;;7.60;99.90;;;;;;6115637;23;20222;-74
2022/11/29 01:50:59;;;;;;;27.05;23.05;;;7.60;99.90;;;;;;6118359;23;20625;-74
2022/11/29 01:53:29;;;;;;;23.20;20.90;;;7.60;99.90;;;;;;6116888;23;20282;-74
2022/11/29 01:56:01;;;;;;;22.10;19.98;;;7.60;99.90;;;;;;6116525;23;20610;-74
2022/11/29 01:58:29;;;;;;;21.55;19.45;;;7.60;99.90;;;;;;6115074;23;20657;-74
2022/11/29 02:00:57;;;;;;;23.20;20.83;;;7.60;99.90;;;;;;6117226;23;20672;-73
2022/11/29 02:03:24;;;;;;;23.90;21.63;;;7.60;99.90;;;;;;6116538;23;20192;-73
2022/11/29 02:05:53;;;;;;;21.25;19.33;;;7.60;99.90;;;;;;6115238;23;20704;-74
2022/11/29 02:08:24;;;;;;;20.70;18.80;;;7.60;99.90;;;;;;6116124;23;20271;-73
2022/11/29 02:11:08;;;;;;;20.30;18.35;;;7.60;99.90;;;;;;6116499;23;20274;-74
2022/11/29 02:13:45;;;;;;;20.45;18.55;;;7.60;99.90;;;;;;6117736;23;20604;-73
2022/11/29 02:16:20;;;;;;;19.50;17.80;;;7.20;99.90;;;;;;6118211;23;20280;-73
2022/11/29 02:18:56;;;;;;;18.40;16.73;;;7.50;99.90;;;;;;6113624;23;20248;-73
2022/11/29 02:21:37;;;;;;;23.02;20.60;;;7.50;99.90;;;;;;6116460;23;20219;-73
2022/11/29 02:24:36;;;;;;;18.85;17.15;;;7.50;99.90;;;;;;6116744;23;20183;-73
2022/11/29 02:27:33;;;;;;;17.90;16.30;;;7.60;99.90;;;;;;6116746;23;20196;-74
2022/11/29 02:30:12;;;;;;;17.77;16.00;;;7.60;99.90;;;;;;6103813;23;20571;-74
2022/11/29 02:33:09;;;;;;;19.45;17.35;;;7.60;99.90;;;;;;6117279;23;20183;-74
2022/11/29 02:35:58;;;;;;;18.20;16.30;;;7.60;99.90;;;;;;6111642;23;20203;-74
2022/11/29 02:38:58;;;;;;;17.38;15.73;;;7.60;99.90;;;;;;6117844;23;20187;-73
2022/11/29 02:41:39;;;;;;;17.85;16.15;;;7.60;99.90;;;;;;6116918;23;20218;-74
2022/11/29 02:44:36;;;;;;;15.40;14.00;;;7.60;99.90;;;;;;6116928;23;20183;-73
2022/11/29 02:47:15;;;;;;;17.13;15.50;;;7.60;99.90;;;;;;6111658;23;20217;-74
2022/11/29 02:50:11;;;;;;;18.77;16.88;;;7.70;99.90;;;;;;6116600;23;20192;-73
2022/11/29 02:52:46;;;;;;;19.05;17.25;;;7.70;99.90;;;;;;6106426;23;20267;-73
2022/11/29 02:55:19;;;;;;;18.25;16.65;;;7.70;99.90;;;;;;6114676;23;20649;-74
2022/11/29 02:57:55;;;;;;;16.23;14.75;;;7.70;99.90;;;;;;6118006;23;20229;-74
2022/11/29 03:00:23;;;;;;;16.02;14.63;;;7.70;99.90;;;;;;6116757;23;20261;-74
2022/11/29 03:02:57;;;;;;;16.70;15.10;;;7.70;99.90;;;;;;6109032;23;20553;-74
2022/11/29 03:05:34;;;;;;;14.82;13.45;;;7.70;99.90;;;;;;6110220;23;20199;-73
2022/11/29 03:08:10;;;;;;;14.27;12.98;;;7.70;99.90;;;;;;6112448;23;20284;-74
2022/11/29 03:10:44;;;;;;;13.38;12.18;;;7.70;99.90;;;;;;6112959;23;20191;-74
2022/11/29 03:13:21;;;;;;;14.05;12.75;;;7.70;99.90;;;;;;6114701;23;20195;-74
2022/11/29 03:15:57;;;;;;;14.23;12.93;;;7.80;99.90;;;;;;6115170;23;20245;-74
2022/11/29 03:18:33;;;;;;;15.07;13.75;;;7.80;99.90;;;;;;6092808;23;20187;-74
2022/11/29 03:21:12;;;;;;;12.88;11.70;;;7.80;99.90;;;;;;6114362;23;20212;-74
2022/11/29 03:23:46;;;;;;;13.85;12.65;;;7.80;99.90;;;;;;6113767;23;20187;-73
2022/11/29 03:26:16;;;;;;;11.15;10.25;;;7.80;99.90;;;;;;6107414;23;20226;-74
2022/11/29 03:28:49;;;;;;;10.60;9.73;;;7.90;99.90;;;;;;6113155;23;20295;-74
2022/11/29 03:31:21;;;;;;;10.35;9.45;;;7.90;99.90;;;;;;6111386;23;20215;-73
2022/11/29 03:33:54;;;;;;;9.80;9.00;;;8.00;99.90;;;;;;6115845;23;20222;-73
2022/11/29 03:36:34;;;;;;;9.73;8.93;;;8.00;99.90;;;;;;6115885;23;20224;-73
2022/11/29 03:39:09;;;;;;;9.85;9.00;;;8.00;99.90;;;;;;6116952;23;20218;-73
2022/11/29 03:41:43;;;;;;;8.48;7.75;;;8.00;99.90;;;;;;6116341;23;20631;-74
2022/11/29 03:44:15;;;;;;;8.65;7.95;;;8.00;99.90;;;;;;6115308;23;20190;-73
2022/11/29 03:46:50;;;;;;;9.07;8.38;;;7.90;99.90;;;;;;6107729;23;20217;-73
2022/11/29 03:49:25;;;;;;;9.48;8.77;;;7.90;99.90;;;;;;6111895;23;20660;-73
2022/11/29 03:52:02;;;;;;;9.05;8.30;;;7.90;99.90;;;;;;6110597;23;20276;-74
2022/11/29 03:54:34;;;;;;;9.20;8.50;;;7.90;99.90;;;;;;6111781;23;20275;-73
2022/11/29 03:57:02;;;;;;;8.68;7.90;;;7.90;99.90;;;;;;6117832;23;20267;-74
2022/11/29 03:59:44;;;;;;;7.93;7.32;;;7.90;99.90;;;;;;6117945;23;20198;-74
2022/11/29 04:02:40;;;;;;;8.60;7.90;;;8.00;99.90;;;;;;6118798;23;20193;-74
2022/11/29 04:05:28;;;;;;;8.70;8.00;;;7.90;99.90;;;;;;6105125;23;20550;-74
2022/11/29 04:08:38;;;;;;;8.07;7.38;;;7.90;99.90;;;;;;6117833;23;20196;-74
2022/11/29 04:11:36;;;;;;;8.75;7.95;;;8.00;99.90;;;;;;6117056;23;20245;-73
2022/11/29 04:14:27;;;;;;;8.60;7.80;;;8.00;99.90;;;;;;6117674;23;20698;-74
2022/11/29 04:17:37;;;;;;;8.02;7.43;;;8.00;99.90;;;;;;6117945;23;20243;-74
2022/11/29 04:20:46;;;;;;;7.85;7.25;;;8.00;99.90;;;;;;5984449;23;20307;-74
2022/11/29 04:24:04;;;;;;;9.05;8.25;;;8.00;99.90;;;;;;5980547;23;20201;-74
2022/11/29 04:26:53;;;;;;;8.48;7.68;;;8.00;99.90;;;;;;6118320;23;20654;-74
2022/11/29 04:29:53;;;;;;;9.13;8.43;;;7.90;99.90;;;;;;6111614;23;20252;-74
2022/11/29 04:32:39;;;;;;;8.48;7.78;;;7.90;99.90;;;;;;6077949;23;20608;-74
2022/11/29 04:35:32;;;;;;;9.60;8.70;;;7.90;99.90;;;;;;6118039;23;20185;-74
2022/11/29 04:38:28;;;;;;;9.38;8.57;;;7.90;99.90;;;;;;6114182;23;20306;-73
2022/11/29 04:41:13;;;;;;;8.90;8.15;;;7.90;99.90;;;;;;6115161;23;20264;-73
2022/11/29 04:43:55;;;;;;;9.10;8.40;;;7.90;99.90;;;;;;6117880;23;20214;-74
2022/11/29 04:46:45;;;;;;;9.35;8.55;;;7.90;99.90;;;;;;6116750;23;20269;-74
2022/11/29 04:49:39;;;;;;;10.20;9.32;;;7.90;99.90;;;;;;6112668;23;20254;-74
2022/11/29 04:52:32;;;;;;;11.10;10.20;;;7.90;99.90;;;;;;6083997;23;20262;-74
2022/11/29 04:55:12;;;;;;;10.40;9.10;;;7.90;99.90;;;;;;6102838;23;20267;-74
2022/11/29 04:57:46;;;;;;;9.57;8.73;;;8.00;99.90;;;;;;6111170;23;20271;-74
2022/11/29 05:00:19;;;;;;;9.25;8.45;;;7.90;99.90;;;;;;6107630;23;20212;-74
2022/11/29 05:02:54;;;;;;;10.45;9.55;;;7.90;99.90;;;;;;6119164;23;20190;-74
2022/11/29 05:05:32;;;;;;;9.82;9.02;;;7.90;99.90;;;;;;6118757;23;20214;-73
2022/11/29 05:08:15;;;;;;;10.23;9.32;;;7.90;99.90;;;;;;6111669;23;20253;-74
2022/11/29 05:10:54;;;;;;;10.90;9.90;;;7.90;99.90;;;;;;6116293;23;20608;-73
2022/11/29 05:13:31;;;;;;;11.27;10.23;;;7.90;99.90;;;;;;6110277;23;20192;-74
2022/11/29 05:16:14;;;;;;;10.93;9.93;;;8.00;99.90;;;;;;6116498;23;20979;-74
2022/11/29 05:19:15;;;;;;;11.43;10.43;;;7.90;99.90;;;;;;6113947;23;20246;-74
2022/11/29 05:21:52;;;;;;;11.93;10.93;;;7.90;99.90;;;;;;6101081;23;20347;-75
2022/11/29 05:24:33;;;;;;;12.35;11.25;;;7.90;99.90;;;;;;6102399;23;20582;-74
2022/11/29 05:27:08;;;;;;;13.75;12.40;;;7.90;99.90;;;;;;6111702;23;20225;-75
2022/11/29 05:29:43;;;;;;;12.70;11.40;;;7.90;99.90;;;;;;6105653;23;20263;-74
2022/11/29 05:32:32;;;;;;;13.02;11.20;;;8.10;99.90;;;;;;6108239;23;20184;-74
2022/11/29 05:35:32;;;;;;;12.85;11.75;;;7.90;99.90;;;;;;6112397;23;20192;-74
2022/11/29 05:38:12;;;;;;;11.70;10.60;;;7.90;99.90;;;;;;6127327;23;20188;-83
2022/11/29 05:40:56;;;;;;;14.07;12.75;;;8.00;99.90;;;;;;6107145;23;20207;-74
2022/11/29 05:43:47;;;;;;;14.18;12.77;;;8.10;99.90;;;;;;6105340;23;21147;-74
2022/11/29 05:46:21;;;;;;;13.43;12.23;;;8.10;99.90;;;;;;6106036;23;20727;-75
2022/11/29 05:48:58;;;;;;;13.40;12.07;;;8.10;99.90;;;;;;6105929;23;20190;-71
2022/11/29 05:51:39;;;;;;;14.10;12.68;;;8.00;99.90;;;;;;6107636;23;20952;-73
2022/11/29 05:54:17;;;;;;;12.60;11.45;;;8.00;99.90;;;;;;6117725;23;20284;-73
2022/11/29 05:56:51;;;;;;;14.25;12.90;;;8.00;99.90;;;;;;6107934;23;20226;-72
2022/11/29 05:59:22;;;;;;;13.85;12.52;;;8.00;99.90;;;;;;6115586;23;20185;-72
2022/11/29 06:01:58;;;;;;;14.23;12.57;;;8.10;99.90;;;;;;6111354;23;20204;-73
2022/11/29 06:04:35;;;;;;;16.50;13.27;;;8.00;99.90;;;;;;6109827;23;20673;-73
2022/11/29 06:07:08;;;;;;;17.00;14.20;;;8.00;99.90;;;;;;6110115;23;20187;-72
2022/11/29 06:09:41;;;;;;;16.08;14.30;;;8.00;99.90;;;;;;6103303;23;20280;-71
2022/11/29 06:12:14;;;;;;;17.67;15.52;;;8.00;99.90;;;;;;6111659;23;20246;-72
2022/11/29 06:14:57;;;;;;;18.85;15.68;;;8.00;99.90;;;;;;6111911;23;20185;-71
2022/11/29 06:17:47;;;;;;;17.17;13.77;;;8.00;99.90;;;;;;6116641;23;20196;-72
2022/11/29 06:20:46;;;;;;;19.80;16.13;;;7.90;99.90;;;;;;6113156;23;20213;-71
2022/11/29 06:23:27;;;;;;;16.67;14.45;;;7.90;99.90;;;;;;6112096;23;20683;-72
2022/11/29 06:26:06;;;;;;;20.33;16.65;;;8.00;99.90;;;;;;6118018;23;20586;-72
2022/11/29 06:28:44;;;;;;;25.50;19.63;;;7.90;99.90;;;;;;6116759;23;20189;-71
2022/11/29 06:31:20;;;;;;;18.48;16.60;;;7.90;99.90;;;;;;6104223;23;20189;-71
2022/11/29 06:33:55;;;;;;;23.25;16.83;;;8.00;99.90;;;;;;6116521;23;20190;-71
2022/11/29 06:36:31;;;;;;;22.92;19.23;;;8.00;99.90;;;;;;6108256;23;20277;-72
2022/11/29 06:38:59;;;;;;;20.55;17.70;;;8.00;99.90;;;;;;6109233;23;20207;-71
2022/11/29 06:41:28;;;;;;;18.73;16.05;;;8.00;99.90;;;;;;6117113;23;20299;-71
2022/11/29 06:43:55;;;;;;;27.85;19.13;;;7.80;99.90;;;;;;6112236;23;20201;-71
2022/11/29 06:46:36;;;;;;;23.02;18.25;;;8.00;99.90;;;;;;6115489;23;20597;-71
2022/11/29 06:49:09;;;;;;;21.20;17.52;;;8.00;99.90;;;;;;6112961;23;20347;-71
2022/11/29 06:51:45;;;;;;;21.15;17.33;;;8.10;99.90;;;;;;6111961;23;20186;-72
2022/11/29 06:54:28;;;;;;;20.85;17.50;;;8.10;99.90;;;;;;6113344;23;20570;-71
2022/11/29 06:57:05;;;;;;;18.20;15.95;;;8.10;99.90;;;;;;6116216;23;20238;-72
2022/11/29 06:59:45;;;;;;;18.38;16.45;;;8.10;99.90;;;;;;6115227;23;20191;-71
2022/11/29 07:02:27;;;;;;;17.58;15.77;;;8.10;99.90;;;;;;6115967;23;20219;-72
2022/11/29 07:05:09;;;;;;;16.38;14.63;;;8.10;99.90;;;;;;6116153;23;20187;-72
2022/11/29 07:07:39;;;;;;;16.70;14.65;;;8.10;99.90;;;;;;6113110;23;20198;-72
2022/11/29 07:10:13;;;;;;;14.75;13.25;;;8.10;99.90;;;;;;6110069;23;20275;-72
2022/11/29 07:12:40;;;;;;;15.65;14.02;;;8.10;99.90;;;;;;6115427;23;20242;-72
2022/11/29 07:15:13;;;;;;;15.52;14.02;;;8.10;99.90;;;;;;6112141;23;20679;-72
2022/11/29 07:17:49;;;;;;;15.32;13.60;;;8.10;99.90;;;;;;6114369;23;20271;-72
2022/11/29 07:20:23;;;;;;;14.15;12.85;;;8.20;99.90;;;;;;6110396;23;20208;-72
2022/11/29 07:23:02;;;;;;;14.10;12.52;;;8.10;99.90;;;;;;6115241;23;20192;-71
2022/11/29 07:25:42;;;;;;;12.85;11.65;;;8.10;99.90;;;;;;6117233;23;20208;-72
2022/11/29 07:28:23;;;;;;;12.13;10.93;;;8.10;99.90;;;;;;6110734;23;20219;-71
2022/11/29 07:30:57;;;;;;;12.10;10.90;;;8.20;99.90;;;;;;6115875;23;20195;-71
2022/11/29 07:33:33;;;;;;;10.73;9.73;;;8.20;99.90;;;;;;6113317;23;20219;-72
2022/11/29 07:36:13;;;;;;;11.90;10.80;;;8.20;99.90;;;;;;6115893;23;20515;-72
2022/11/29 07:38:57;;;;;;;11.88;10.75;;;8.20;99.90;;;;;;6110660;23;20185;-71
2022/11/29 07:41:32;;;;;;;11.18;10.18;;;8.20;99.90;;;;;;6118364;23;20212;-72
2022/11/29 07:44:08;;;;;;;12.40;11.27;;;8.20;99.90;;;;;;6115482;23;20283;-72
2022/11/29 07:46:35;;;;;;;11.63;10.55;;;8.20;99.90;;;;;;6116096;23;20652;-72
2022/11/29 07:49:02;;;;;;;9.50;8.70;;;8.20;99.90;;;;;;6114865;23;20191;-72
2022/11/29 07:51:29;;;;;;;11.02;9.93;;;8.20;99.90;;;;;;6114553;23;20187;-72
2022/11/29 07:53:57;;;;;;;9.40;8.60;;;8.20;99.90;;;;;;6119287;23;20263;-71
2022/11/29 07:56:24;;;;;;;8.43;7.70;;;8.20;99.90;;;;;;6113990;23;20192;-72
2022/11/29 07:58:51;;;;;;;8.52;7.72;;;8.20;99.90;;;;;;6114875;23;21151;-72
2022/11/29 08:01:19;;;;;;;9.45;8.65;;;8.20;99.90;;;;;;6117962;23;20574;-72
2022/11/29 08:03:46;;;;;;;7.80;7.20;;;8.20;99.90;;;;;;6113699;23;20216;-72
2022/11/29 08:06:13;;;;;;;8.82;8.13;;;8.20;99.90;;;;;;6115712;23;20276;-72
2022/11/29 08:08:40;;;;;;;7.65;7.05;;;8.20;99.90;;;;;;6109312;23;20197;-72
2022/11/29 08:11:12;;;;;;;7.53;6.93;;;8.20;99.90;;;;;;6111134;23;20195;-72
2022/11/29 08:13:41;;;;;;;6.18;5.68;;;8.20;99.90;;;;;;6116434;23;20264;-72
2022/11/29 08:16:09;;;;;;;6.93;6.32;;;8.20;99.90;;;;;;6110228;23;20248;-71
2022/11/29 08:18:36;;;;;;;6.93;6.40;;;8.20;99.90;;;;;;6116684;23;20473;-72
2022/11/29 08:21:05;;;;;;;6.20;5.70;;;8.20;99.90;;;;;;6117514;23;20214;-71
2022/11/29 08:23:33;;;;;;;6.25;5.75;;;8.30;99.90;;;;;;6113610;23;20578;-72
2022/11/29 08:26:00;;;;;;;6.03;5.53;;;8.30;99.90;;;;;;6116677;23;20200;-72
2022/11/29 08:28:29;;;;;;;5.40;5.00;;;8.40;99.90;;;;;;6110921;23;20263;-72
2022/11/29 08:31:04;;;;;;;4.32;3.95;;;8.40;99.90;;;;;;6110953;23;20651;-72
2022/11/29 08:33:32;;;;;;;5.72;5.22;;;8.40;99.90;;;;;;6108618;23;20197;-72
2022/11/29 08:36:05;;;;;;;5.00;4.60;;;8.40;99.90;;;;;;6113626;23;20211;-71
2022/11/29 08:38:33;;;;;;;6.03;5.43;;;8.40;99.90;;;;;;6116241;23;20213;-72
2022/11/29 08:41:02;;;;;;;5.10;4.70;;;8.50;99.90;;;;;;6114470;23;20188;-71
2022/11/29 08:43:31;;;;;;;6.72;6.13;;;8.50;99.90;;;;;;6116521;23;20190;-72
2022/11/29 08:45:58;;;;;;;9.38;7.22;;;8.50;99.90;;;;;;6110941;23;20658;-72
2022/11/29 08:48:26;;;;;;;8.15;7.35;;;8.50;99.90;;;;;;6116893;23;20189;-72
2022/11/29 08:50:54;;;;;;;10.38;8.52;;;8.50;99.90;;;;;;6112243;23;20245;-72
2022/11/29 08:56:09;;;;;;;13.18;10.25;;;8.50;99.90;;;;;;6116923;23;20197;-72
2022/11/29 08:58:38;;;;;;;12.10;10.15;;;8.50;99.90;;;;;;6118466;23;20188;-72
2022/11/29 09:01:05;;;;;;;12.98;9.85;;;8.50;99.90;;;;;;6115242;23;20231;-72
2022/11/29 09:06:17;;;;;;;13.90;12.40;;;8.50;99.90;;;;;;6113881;23;20192;-73
2022/11/29 09:08:46;;;;;;;14.27;12.38;;;8.50;99.90;;;;;;6116564;23;20221;-73
2022/11/29 09:11:15;;;;;;;13.32;11.93;;;8.50;99.90;;;;;;6113127;23;20222;-73
2022/11/29 09:13:46;;;;;;;14.00;12.50;;;8.50;99.90;;;;;;6115373;23;20186;-73
2022/11/29 09:16:16;;;;;;;14.80;13.20;;;8.50;99.90;;;;;;6116910;23;20300;-72
2022/11/29 09:18:44;;;;;;;13.93;12.32;;;8.50;99.90;;;;;;6112904;23;20188;-73
2022/11/29 09:21:13;;;;;;;15.32;13.68;;;8.60;99.90;;;;;;6115387;23;20217;-73
2022/11/29 09:23:42;;;;;;;19.42;14.75;;;8.50;99.90;;;;;;6117736;23;20366;-73
2022/11/29 09:26:10;;;;;;;16.80;13.57;;;8.50;99.90;;;;;;6110475;23;20215;-73
2022/11/29 09:28:38;;;;;;;18.67;14.73;;;8.50;99.90;;;;;;6114869;23;20260;-73
2022/11/29 09:31:09;;;;;;;18.50;14.15;;;8.50;99.90;;;;;;6109551;23;20186;-73
2022/11/29 09:33:36;;;;;;;16.92;13.63;;;8.50;99.90;;;;;;6113318;23;20205;-73
2022/11/29 09:36:04;;;;;;;17.00;14.50;;;8.40;99.90;;;;;;6109725;23;20643;-73
2022/11/29 09:38:31;;;;;;;17.88;13.60;;;8.40;99.90;;;;;;6108985;23;20185;-71
2022/11/29 09:41:05;;;;;;;18.52;14.52;;;8.40;99.90;;;;;;6114019;23;20635;-70
2022/11/29 09:43:46;;;;;;;16.65;12.75;;;8.10;99.90;;;;;;6107782;23;20240;-71
2022/11/29 09:46:33;;;;;;;17.88;14.27;;;8.50;99.90;;;;;;6114946;23;20197;-70
2022/11/29 09:49:17;;;;;;;15.57;12.57;;;8.50;99.90;;;;;;6110146;23;20193;-71
2022/11/29 09:51:54;;;;;;;15.15;13.00;;;8.50;99.90;;;;;;6114186;23;20220;-70
2022/11/29 09:54:29;;;;;;;13.35;11.95;;;8.50;99.90;;;;;;6117500;23;20678;-70
2022/11/29 09:56:58;;;;;;;13.20;11.80;;;8.50;99.90;;;;;;6107995;23;20235;-71
2022/11/29 09:59:28;;;;;;;13.38;11.27;;;8.50;99.90;;;;;;6111682;23;20694;-70
2022/11/29 10:02:02;;;;;;;13.95;12.52;;;8.50;99.90;;;;;;6114484;23;20706;-70
2022/11/29 10:04:36;;;;;;;17.20;14.52;;;8.50;99.90;;;;;;6116623;23;20244;-70
2022/11/29 10:07:06;;;;;;;13.13;11.80;;;8.50;99.90;;;;;;6108254;23;20253;-71
2022/11/29 10:09:40;;;;;;;14.43;11.80;;;8.40;99.90;;;;;;6113457;23;21745;-70
2022/11/29 10:12:14;;;;;;;11.95;10.57;;;8.40;99.90;;;;;;6104626;23;20275;-70
2022/11/29 10:14:47;;;;;;;11.85;10.70;;;8.40;99.90;;;;;;6109948;23;20187;-78
2022/11/29 10:17:28;;;;;;;12.27;11.13;;;8.40;99.90;;;;;;6115736;23;20227;-77
2022/11/29 10:19:59;;;;;;;11.70;10.60;;;8.50;99.90;;;;;;6113801;23;20222;-77
2022/11/29 10:22:39;;;;;;;10.60;9.60;;;8.50;99.90;;;;;;6116710;23;20213;-78
2022/11/29 10:25:10;;;;;;;11.07;9.98;;;8.50;99.90;;;;;;6116041;23;20247;-77
2022/11/29 10:27:40;;;;;;;10.95;10.00;;;8.50;99.90;;;;;;6117318;23;20189;-77
2022/11/29 10:30:14;;;;;;;12.00;10.80;;;8.50;99.90;;;;;;6116549;23;20421;-77
2022/11/29 10:32:46;;;;;;;11.27;10.18;;;8.50;99.90;;;;;;6103854;23;20628;-71
2022/11/29 10:35:16;;;;;;;12.70;11.50;;;8.50;99.90;;;;;;6112872;23;20267;-71
2022/11/29 10:37:45;;;;;;;10.75;9.75;;;8.50;99.90;;;;;;6112326;23;20221;-71
2022/11/29 10:40:17;;;;;;;10.20;9.27;;;8.40;99.90;;;;;;6113857;23;20327;-71
2022/11/29 10:42:53;;;;;;;10.13;9.25;;;8.40;99.90;;;;;;6107706;23;20214;-71
2022/11/29 10:45:29;;;;;;;10.38;9.40;;;8.40;99.90;;;;;;6114044;23;20190;-71
2022/11/29 10:48:02;;;;;;;10.25;9.45;;;8.40;99.90;;;;;;6113014;23;20184;-71
2022/11/29 10:50:31;;;;;;;10.18;9.20;;;8.40;99.90;;;;;;6116667;23;20709;-71
2022/11/29 10:53:04;;;;;;;11.02;10.00;;;8.50;99.90;;;;;;6102607;23;20210;-71
2022/11/29 10:55:38;;;;;;;9.32;8.63;;;8.50;99.90;;;;;;6116417;23;20200;-71
2022/11/29 10:58:15;;;;;;;10.38;9.48;;;8.60;99.90;;;;;;6117285;23;20216;-71
2022/11/29 11:00:56;;;;;;;9.63;8.82;;;8.60;99.90;;;;;;6115412;23;20193;-71
2022/11/29 11:03:33;;;;;;;8.30;7.60;;;8.60;99.90;;;;;;6116262;23;20634;-71
2022/11/29 11:06:07;;;;;;;9.00;8.05;;;8.60;99.90;;;;;;6114784;23;20197;-71
2022/11/29 11:08:36;;;;;;;8.90;8.10;;;8.60;99.90;;;;;;6118478;23;20247;-71
2022/11/29 11:11:06;;;;;;;11.40;10.50;;;8.60;99.90;;;;;;6111162;23;20205;-70
2022/11/29 11:13:34;;;;;;;10.60;9.70;;;8.70;99.90;;;;;;6113523;23;20186;-71
2022/11/29 11:16:09;;;;;;;11.93;10.93;;;8.50;99.90;;;;;;6115807;23;20213;-71
2022/11/29 11:18:40;;;;;;;10.85;9.95;;;8.50;99.90;;;;;;6113041;23;20639;-71
2022/11/29 11:21:10;;;;;;;11.75;10.65;;;8.50;99.90;;;;;;6115401;23;20192;-71
2022/11/29 11:23:42;;;;;;;11.25;10.32;;;8.60;99.90;;;;;;6116326;23;20244;-71
2022/11/29 11:26:12;;;;;;;11.57;10.68;;;8.50;99.90;;;;;;6117333;23;20246;-71
2022/11/29 11:28:44;;;;;;;12.25;11.25;;;8.50;99.90;;;;;;6117356;23;20222;-71
2022/11/29 11:31:12;;;;;;;11.40;10.50;;;8.50;99.90;;;;;;6120969;23;20214;-71
2022/11/29 11:33:42;;;;;;;11.30;10.30;;;8.50;99.90;;;;;;6113144;23;20560;-71
2022/11/29 11:36:13;;;;;;;12.50;11.50;;;8.60;99.90;;;;;;6115386;23;20203;-71
2022/11/29 11:38:48;;;;;;;11.77;10.68;;;8.60;99.90;;;;;;6106322;23;20681;-71
2022/11/29 11:41:21;;;;;;;12.43;11.32;;;8.60;99.90;;;;;;6110300;23;20221;-71
2022/11/29 11:43:53;;;;;;;11.73;10.73;;;8.60;99.90;;;;;;6111769;23;20995;-71
2022/11/29 11:46:21;;;;;;;12.60;11.52;;;8.60;99.90;;;;;;6115776;23;20224;-70
2022/11/29 11:48:51;;;;;;;12.55;11.45;;;8.60;99.90;;;;;;6115530;23;20263;-71
2022/11/29 11:51:23;;;;;;;12.07;10.98;;;8.70;99.90;;;;;;6112218;23;20529;-71
2022/11/29 11:53:52;;;;;;;12.05;10.95;;;8.70;99.90;;;;;;6118155;23;20263;-71
2022/11/29 11:56:21;;;;;;;11.57;10.57;;;8.70;99.90;;;;;;6114698;23;20252;-71
2022/11/29 11:58:52;;;;;;;11.20;10.30;;;8.70;99.90;;;;;;6113780;23;20214;-71
2022/11/29 12:01:26;;;;;;;12.27;11.15;;;8.70;99.90;;;;;;6112725;23;20194;-71
2022/11/29 12:04:01;;;;;;;12.10;11.05;;;8.80;99.90;;;;;;6113165;23;20290;-72
2022/11/29 12:06:41;;;;;;;10.45;9.55;;;8.80;99.90;;;;;;6110272;23;20183;-72
2022/11/29 12:09:18;;;;;;;12.38;11.35;;;8.80;99.90;;;;;;6114628;23;20209;-72
2022/11/29 12:11:54;;;;;;;11.55;10.60;;;8.80;99.90;;;;;;6114638;23;20265;-72
2022/11/29 12:14:28;;;;;;;11.30;10.40;;;8.70;99.90;;;;;;6115110;23;20190;-72
2022/11/29 12:17:03;;;;;;;11.90;10.85;;;8.70;99.90;;;;;;6105852;23;20259;-72
2022/11/29 12:19:38;;;;;;;9.52;8.82;;;8.70;99.90;;;;;;6115633;23;20248;-72
2022/11/29 12:22:13;;;;;;;10.10;9.27;;;8.70;99.90;;;;;;6107897;23;20264;-72
2022/11/29 12:24:50;;;;;;;9.65;8.88;;;8.80;99.90;;;;;;6112310;23;20728;-72
2022/11/29 12:27:17;;;;;;;9.02;8.27;;;8.80;99.90;;;;;;6120396;23;20187;-72
2022/11/29 12:29:44;;;;;;;7.47;6.88;;;8.90;99.90;;;;;;6115492;23;20193;-72
2022/11/29 12:32:23;;;;;;;7.95;7.32;;;9.00;99.90;;;;;;6109633;23;20206;-72
2022/11/29 12:35:08;;;;;;;8.15;7.35;;;9.10;99.90;;;;;;6113790;23;20193;-72
2022/11/29 12:37:43;;;;;;;8.98;8.20;;;9.20;99.90;;;;;;6114480;23;20202;-72
2022/11/29 12:40:17;;;;;;;7.95;7.35;;;9.30;99.90;;;;;;6105554;23;20188;-72
2022/11/29 12:42:51;;;;;;;7.20;6.70;;;9.30;99.90;;;;;;6100031;23;20284;-72
2022/11/29 12:45:34;;;;;;;8.55;7.90;;;9.30;99.90;;;;;;6111307;23;20229;-71
2022/11/29 12:48:12;;;;;;;8.43;7.82;;;9.20;99.90;;;;;;6104455;23;20187;-71
2022/11/29 12:50:51;;;;;;;8.52;7.82;;;9.20;99.90;;;;;;6101474;23;20438;-71
2022/11/29 12:53:39;;;;;;;8.65;7.95;;;9.10;99.90;;;;;;6108098;23;20273;-72
2022/11/29 12:56:14;;;;;;;8.13;7.43;;;9.10;99.90;;;;;;6109225;23;20206;-72
2022/11/29 12:58:55;;;;;;;8.95;8.25;;;8.90;99.90;;;;;;6107521;23;20190;-72
2022/11/29 13:01:30;;;;;;;8.82;8.15;;;9.00;99.90;;;;;;6102791;23;22317;-71
2022/11/29 13:04:06;;;;;;;9.40;8.63;;;8.90;99.90;;;;;;6110853;23;20233;-71
2022/11/29 13:06:43;;;;;;;8.73;8.10;;;8.90;99.90;;;;;;6112382;23;20212;-71
2022/11/29 13:09:42;;;;;;;8.90;8.30;;;9.00;99.90;;;;;;6116275;23;20258;-72
2022/11/29 13:12:16;;;;;;;8.15;7.55;;;9.00;99.90;;;;;;6083507;23;20190;-72
2022/11/29 13:14:49;;;;;;;8.65;7.97;;;9.00;99.90;;;;;;6112568;23;20588;-72
2022/11/29 13:17:28;;;;;;;9.10;8.40;;;9.00;99.90;;;;;;6111603;23;20190;-71
2022/11/29 13:19:58;;;;;;;8.77;8.07;;;9.00;99.90;;;;;;6117973;23;20306;-71
2022/11/29 13:22:40;;;;;;;10.25;9.43;;;9.00;99.90;;;;;;6114537;23;20267;-72
2022/11/29 13:25:15;;;;;;;11.75;10.75;;;9.00;99.90;;;;;;6116138;23;20209;-72
2022/11/29 13:27:49;;;;;;;9.65;8.85;;;8.90;99.90;;;;;;6117001;23;20200;-72
2022/11/29 13:30:16;;;;;;;9.90;8.90;;;8.90;99.90;;;;;;6108973;23;20214;-72
2022/11/29 13:32:48;;;;;;;8.85;8.25;;;8.90;99.90;;;;;;6116092;23;20227;-72